Time;durP1;ratioP1;P1;durP2;ratioP2;P2;SDS_P1;SDS_P2;PMS_P1;PMS_P2;Temp;Humidity;BMP_temperature;BMP_pressure;BME280_temperature;BME280_humidity;BME280_pressure;Samples;Min_cycle;Max_cycle;Signal;HPM_P1;HPM_P2
2021/06/04 07:52:03;;;;;;;10.07;7.22;;;;;;;18.38;66.54;101445.47;3569231;40;20581;-52
2021/06/04 07:54:37;;;;;;;9.70;7.57;;;;;;;18.49;63.12;101448.16;3569558;40;20084;-48
2021/06/04 07:57:08;;;;;;;7.78;7.03;;;;;;;18.50;63.09;101445.56;3564579;40;20136;-46
2021/06/04 07:59:50;;;;;;;9.00;7.20;;;;;;;18.66;64.71;101437.84;3568619;40;20061;-47
2021/06/04 08:02:25;;;;;;;9.25;7.68;;;;;;;18.56;66.87;101445.56;3566789;40;20398;-52
2021/06/04 08:05:04;;;;;;;8.80;7.00;;;;;;;18.57;64.53;101447.31;3569352;40;20041;-50
2021/06/04 08:07:47;;;;;;;12.98;7.63;;;;;;;18.78;65.15;101441.38;3568079;40;20797;-47
2021/06/04 08:10:31;;;;;;;9.70;7.50;;;;;;;18.63;65.47;101443.03;3570670;40;20053;-48
2021/06/04 08:13:02;;;;;;;;;;;;;;;18.94;63.87;101454.41;3573967;40;20114;-47
2021/06/04 08:15:37;;;;;;;9.02;7.38;;;;;;;18.94;62.73;101451.81;3573570;40;19933;-49
2021/06/04 08:18:17;;;;;;;7.35;6.65;;;;;;;19.34;61.06;101455.41;3570304;40;20049;-52
2021/06/04 08:20:54;;;;;;;9.25;7.20;;;;;;;19.35;61.34;101457.13;3573384;40;20056;-48
2021/06/04 08:23:44;;;;;;;11.00;7.13;;;;;;;19.25;61.19;101452.78;3573327;40;20041;-51
2021/06/04 08:26:19;;;;;;;11.00;7.82;;;;;;;19.07;63.09;101464.84;3570408;40;20114;-48
2021/06/04 08:28:52;;;;;;;12.18;8.02;;;;;;;18.92;62.44;101456.16;3573582;40;20037;-50
2021/06/04 08:31:24;;;;;;;11.52;7.88;;;;;;;18.89;63.74;101456.13;3573856;40;20045;-51
2021/06/04 08:34:01;;;;;;;9.38;8.30;;;;;;;18.66;65.46;101453.41;3573270;40;20049;-47
2021/06/04 08:36:50;;;;;;;10.98;8.68;;;;;;;18.62;64.67;101449.91;3573639;40;20065;-49
2021/06/04 08:39:30;;;;;;;10.40;8.00;;;;;;;18.61;64.93;101447.31;3570568;40;20085;-48
2021/06/04 08:42:21;;;;;;;11.20;7.82;;;;;;;18.68;66.02;101455.16;3576451;40;20040;-48
2021/06/04 08:45:25;;;;;;;10.35;8.55;;;;;;;18.66;66.89;101458.59;3576789;40;20419;-51
2021/06/04 08:48:34;;;;;;;16.55;9.40;;;;;;;18.57;70.02;101460.28;3572726;40;20048;-49
2021/06/04 08:51:33;;;;;;;10.77;8.30;;;;;;;18.45;66.99;101464.56;3572700;40;20075;-48
2021/06/04 08:54:30;;;;;;;11.60;9.02;;;;;;;18.27;67.47;101455.78;3569333;40;20060;-48
2021/06/04 08:56:57;;;;;;;;;;;;;;;18.41;68.28;101448.09;3569229;40;20041;-47
2021/06/04 08:59:25;;;;;;;11.32;8.50;;;;;;;18.71;66.39;101443.94;3567372;40;20008;-51
2021/06/04 09:01:59;;;;;;;13.07;8.43;;;;;;;18.75;64.98;101443.97;3567752;40;20093;-49
2021/06/04 09:04:34;;;;;;;10.73;8.43;;;;;;;18.58;66.32;101443.00;3569726;40;20171;-53
2021/06/04 09:07:14;;;;;;;13.35;8.65;;;;;;;18.55;65.27;101432.59;3567460;40;20434;-48
2021/06/04 09:09:53;;;;;;;14.57;9.00;;;;;;;18.97;65.33;101429.34;3569307;40;20084;-47
2021/06/04 09:12:23;;;;;;;12.43;7.90;;;;;;;18.82;65.48;101432.75;3570834;40;20220;-48
2021/06/04 09:14:52;;;;;;;9.18;8.10;;;;;;;18.79;66.31;101427.53;3573047;40;20107;-51
2021/06/04 09:17:52;;;;;;;9.07;8.05;;;;;;;18.94;65.25;101424.13;3573405;40;20104;-51
2021/06/04 09:20:22;;;;;;;11.25;8.30;;;;;;;18.81;66.21;101424.94;3566095;40;20138;-50
2021/06/04 09:22:57;;;;;;;11.50;8.90;;;;;;;18.55;66.59;101430.00;3573277;40;20068;-53
2021/06/04 09:25:27;;;;;;;11.63;8.05;;;;;;;18.49;68.10;101428.25;3568852;40;20053;-48
2021/06/04 09:28:10;;;;;;;11.38;7.82;;;;;;;18.80;66.25;101433.59;3567373;40;20041;-49
2021/06/04 09:30:46;;;;;;;10.50;8.23;;;;;;;19.07;65.73;101441.47;3567542;40;20408;-48
2021/06/04 09:33:21;;;;;;;;;;;;;;;19.24;66.31;101441.53;3566491;40;20093;-51
2021/06/04 09:36:03;;;;;;;8.82;7.88;;;;;;;19.85;63.94;101432.94;3571382;40;19972;-48
2021/06/04 09:38:50;;;;;;;13.63;9.07;;;;;;;20.27;63.62;101439.81;3564086;40;20376;-47
2021/06/04 09:41:23;;;;;;;10.20;7.97;;;;;;;20.57;58.74;101438.91;3566520;40;20045;-48
2021/06/04 09:44:29;;;;;;;10.30;7.60;;;;;;;20.57;59.50;101438.03;3568759;40;20068;-50
2021/06/04 09:47:12;;;;;;;9.02;7.43;;;;;;;20.90;59.10;101444.84;3566882;40;20077;-49
2021/06/04 09:49:43;;;;;;;8.90;7.82;;;;;;;21.34;55.21;101448.94;3566883;40;20064;-49
2021/06/04 09:52:31;;;;;;;11.98;7.68;;;;;;;21.16;56.68;101449.00;3565089;40;20052;-49
2021/06/04 09:55:10;;;;;;;9.30;7.75;;;;;;;20.43;59.09;101451.06;3568766;40;20351;-47
2021/06/04 09:58:17;;;;;;;11.23;7.47;;;;;;;19.63;60.68;101450.25;3567558;40;20436;-47
2021/06/04 10:01:07;;;;;;;12.55;7.68;;;;;;;19.75;60.05;101444.22;3563060;40;20081;-49
2021/06/04 10:03:40;;;;;;;9.10;7.68;;;;;;;19.33;59.82;101427.69;3568512;40;20049;-49
2021/06/04 10:06:08;;;;;;;9.73;7.38;;;;;;;19.58;59.54;101425.97;3564099;40;20496;-49
2021/06/04 10:08:51;;;;;;;8.85;7.93;;;;;;;19.16;59.92;101421.59;3570803;40;20057;-50
2021/06/04 10:11:47;;;;;;;9.32;7.05;;;;;;;19.42;59.03;101427.72;3560228;40;20332;-47
2021/06/04 10:14:21;;;;;;;9.82;7.50;;;;;;;19.49;60.23;101425.97;3569539;40;20092;-47
2021/06/04 10:19:28;;;;;;;7.38;6.68;;;;;;;19.22;61.63;101422.47;3568768;40;20057;-50
2021/06/04 10:22:25;;;;;;;8.35;7.15;;;;;;;19.18;62.74;101422.44;3565796;40;20073;-48
2021/06/04 10:25:01;;;;;;;7.80;6.72;;;;;;;19.13;62.55;101432.84;3562415;40;20430;-49
2021/06/04 10:27:28;;;;;;;;;;;;;;;19.27;64.17;101428.56;3563402;40;20089;-48
2021/06/04 10:30:12;;;;;;;12.90;8.48;;;;;;;18.97;66.74;101418.97;3562462;40;19941;-47
2021/06/04 10:32:50;;;;;;;12.57;8.55;;;;;;;18.88;69.55;101426.72;3562601;40;20049;-51
2021/06/04 10:35:42;;;;;;;10.40;8.05;;;;;;;18.92;69.25;101420.69;3564036;40;20162;-48
2021/06/04 10:38:43;;;;;;;11.07;8.18;;;;;;;19.00;69.70;101418.97;3564994;40;20092;-48
2021/06/04 10:41:16;;;;;;;9.82;8.90;;;;;;;19.54;68.89;101429.44;3558055;40;20086;-51
2021/06/04 10:43:55;;;;;;;12.45;8.70;;;;;;;19.51;68.66;101421.66;3566591;40;20093;-51
2021/06/04 10:46:49;;;;;;;13.63;8.32;;;;;;;19.95;64.42;101419.06;3568389;40;20085;-48
2021/06/04 10:49:59;;;;;;;11.85;8.07;;;;;;;20.55;61.40;101416.34;3563438;40;20134;-48
2021/06/04 10:52:47;;;;;;;11.30;7.72;;;;;;;20.57;62.27;101423.28;3565878;40;20049;-48
2021/06/04 10:55:31;;;;;;;11.60;8.25;;;;;;;20.89;60.53;101419.69;3563843;40;20120;-48
2021/06/04 10:58:20;;;;;;;14.18;7.38;;;;;;;21.24;59.31;101424.66;3567800;40;20051;-47
2021/06/04 11:00:55;;;;;;;10.95;7.45;;;;;;;22.26;54.43;101432.53;3572333;40;20045;-49
2021/06/04 11:03:31;;;;;;;9.65;7.28;;;;;;;22.22;53.09;101431.69;3568025;40;20300;-50
2021/06/04 11:06:17;;;;;;;11.02;7.30;;;;;;;22.20;54.01;101430.84;3566730;40;20128;-49
2021/06/04 11:09:21;;;;;;;12.82;7.70;;;;;;;21.86;54.96;101432.88;3568164;40;20427;-50
2021/06/04 11:12:11;;;;;;;8.80;7.90;;;;;;;21.75;54.86;101427.78;3568598;40;20552;-51
2021/06/04 11:14:57;;;;;;;11.27;7.90;;;;;;;21.32;59.03;101425.50;3569807;40;20536;-49
2021/06/04 11:17:48;;;;;;;16.57;9.53;;;;;;;20.74;61.41;101428.41;3571651;40;20612;-49
2021/06/04 11:20:20;;;;;;;12.75;8.68;;;;;;;20.83;63.26;101428.34;3570927;40;20057;-49
2021/06/04 11:22:56;;;;;;;9.75;8.45;;;;;;;21.67;58.85;101437.38;3573727;40;20093;-52
2021/06/04 11:25:29;;;;;;;12.10;8.13;;;;;;;20.96;61.88;101433.50;3573919;40;20052;-51
2021/06/04 11:28:12;;;;;;;11.20;8.48;;;;;;;21.56;61.86;101442.69;3573784;40;20048;-50
2021/06/04 11:30:40;;;;;;;10.25;8.57;;;;;;;21.64;59.81;101439.19;3573682;40;20450;-49
2021/06/04 11:33:27;;;;;;;10.43;7.93;;;;;;;22.15;56.09;101440.47;3570347;40;20060;-49
2021/06/04 11:36:16;;;;;;;11.25;7.60;;;;;;;21.85;55.98;101438.97;3574291;40;20689;-49
2021/06/04 11:38:46;;;;;;;8.77;7.25;;;;;;;22.31;53.17;101435.94;3573785;40;20372;-48
2021/06/04 11:41:47;;;;;;;9.88;7.47;;;;;;;22.58;56.49;101432.16;3573811;40;20450;-47
2021/06/04 11:44:42;;;;;;;9.23;7.75;;;;;;;21.78;55.39;101429.50;3568194;40;20092;-51
2021/06/04 11:47:11;;;;;;;12.65;7.82;;;;;;;21.81;56.59;101427.72;3570186;40;20076;-54
2021/06/04 11:49:53;;;;;;;10.70;7.72;;;;;;;21.95;53.77;101427.56;3573476;40;20101;-47
2021/06/04 11:52:34;;;;;;;8.65;7.45;;;;;;;22.58;51.97;101421.72;3567216;40;20078;-49
2021/06/04 11:55:28;;;;;;;9.85;6.82;;;;;;;24.02;47.22;101428.28;3568939;40;20142;-48
2021/06/04 11:58:29;;;;;;;9.77;7.50;;;;;;;23.41;49.64;101424.06;3567919;40;20044;-49
2021/06/04 12:01:17;;;;;;;10.95;6.53;;;;;;;23.28;47.81;101428.63;3573507;40;20131;-49
2021/06/04 12:03:51;;;;;;;10.07;7.47;;;;;;;23.85;47.47;101425.13;3573576;40;20089;-51
2021/06/04 12:06:26;;;;;;;7.55;6.60;;;;;;;24.56;43.88;101420.28;3573971;40;20454;-52
2021/06/04 12:08:58;;;;;;;8.38;7.05;;;;;;;24.65;45.03;101419.25;3573428;40;20077;-48
2021/06/04 12:11:32;;;;;;;9.27;7.05;;;;;;;25.24;43.08;101411.84;3573567;40;20466;-48
2021/06/04 12:14:00;;;;;;;11.63;7.10;;;;;;;26.01;41.42;101410.78;3573053;40;20143;-49
2021/06/04 12:16:30;;;;;;;7.90;7.10;;;;;;;24.89;43.90;101399.50;3567865;40;20272;-53
2021/06/04 12:19:06;;;;;;;10.43;7.10;;;;;;;26.27;41.24;101402.19;3568180;40;20049;-51
2021/06/04 12:21:41;;;;;;;10.30;7.53;;;;;;;26.25;41.22;101397.88;3569279;40;20318;-52
2021/06/04 12:24:20;;;;;;;;;;;;;;;26.51;40.33;101402.41;3564374;40;20092;-53
2021/06/04 12:27:20;;;;;;;8.23;7.32;;;;;;;27.52;39.00;101405.41;3570010;40;20291;-50
2021/06/04 12:29:51;;;;;;;10.48;7.40;;;;;;;26.09;41.04;101394.81;3569122;40;20369;-51
2021/06/04 12:32:39;;;;;;;9.05;7.32;;;;;;;25.73;41.70;101394.88;3569608;40;20399;-49
2021/06/04 12:35:07;;;;;;;10.43;7.50;;;;;;;26.42;40.66;101387.75;3569058;40;20085;-48
2021/06/04 12:37:40;;;;;;;9.15;7.30;;;;;;;25.20;44.13;101383.13;3568505;40;20055;-51
2021/06/04 12:40:30;;;;;;;7.78;7.00;;;;;;;25.87;43.33;101384.91;3563999;40;20285;-49
2021/06/04 12:43:07;;;;;;;8.25;7.30;;;;;;;25.41;44.82;101379.94;3567926;40;20121;-48
2021/06/04 12:45:44;;;;;;;8.57;7.80;;;;;;;25.19;44.88;101374.38;3569264;40;20069;-51
2021/06/04 12:48:25;;;;;;;12.32;7.30;;;;;;;25.23;46.04;101373.38;3564787;40;20095;-47
2021/06/04 12:50:55;;;;;;;7.90;7.13;;;;;;;24.31;47.41;101375.41;3567393;40;20080;-48
2021/06/04 12:53:42;;;;;;;8.13;7.32;;;;;;;24.53;48.21;101367.09;3568758;40;20573;-49
2021/06/04 12:56:27;;;;;;;9.32;7.68;;;;;;;24.73;48.19;101367.56;3563957;40;20158;-47
2021/06/04 12:59:14;;;;;;;9.43;8.45;;;;;;;23.79;49.46;101370.28;3571952;40;20071;-49
2021/06/04 13:02:02;;;;;;;10.50;7.82;;;;;;;23.49;51.39;101355.97;3573401;40;20100;-50
2021/06/04 13:04:33;;;;;;;10.27;7.70;;;;;;;24.55;50.10;101370.56;3571273;40;20307;-50
2021/06/04 13:07:03;;;;;;;10.32;8.10;;;;;;;24.84;50.37;101362.06;3573366;40;20136;-51
2021/06/04 13:09:35;;;;;;;9.40;7.75;;;;;;;25.55;48.98;101367.34;3573471;40;20063;-47
2021/06/04 13:12:18;;;;;;;9.73;8.70;;;;;;;25.93;49.67;101368.16;3572915;40;20590;-51
2021/06/04 13:14:48;;;;;;;11.68;9.75;;;;;;;24.96;52.46;101371.38;3573173;40;20060;-48
2021/06/04 13:17:27;;;;;;;11.55;10.25;;;;;;;25.03;53.32;101368.59;3573099;40;20107;-49
2021/06/04 13:20:17;;;;;;;12.10;8.45;;;;;;;25.11;51.08;101357.97;3572837;40;20053;-48
2021/06/04 13:23:03;;;;;;;10.13;8.57;;;;;;;24.87;51.49;101359.38;3573288;40;20843;-48
2021/06/04 13:25:30;;;;;;;9.68;8.63;;;;;;;24.70;51.63;101358.91;3573323;40;20076;-48
2021/06/04 13:28:36;;;;;;;9.93;9.10;;;;;;;25.19;51.12;101349.91;3573344;40;20085;-48
2021/06/04 13:31:05;;;;;;;11.20;8.63;;;;;;;25.94;49.80;101348.00;3573237;40;20151;-53
2021/06/04 13:33:42;;;;;;;12.15;9.18;;;;;;;25.31;50.04;101349.63;3573256;40;20057;-47
2021/06/04 13:36:11;;;;;;;12.43;8.77;;;;;;;25.65;49.82;101353.09;3570049;40;20565;-52
2021/06/04 13:38:46;;;;;;;10.82;9.32;;;;;;;24.66;50.71;101350.25;3573137;40;20056;-48
2021/06/04 13:41:37;;;;;;;9.13;8.25;;;;;;;25.68;50.29;101362.66;3570235;40;20045;-48
2021/06/04 13:44:11;;;;;;;10.00;9.02;;;;;;;25.69;49.90;101363.50;3573181;40;20136;-49
2021/06/04 13:46:44;;;;;;;10.85;9.75;;;;;;;25.80;48.65;101359.75;3573376;40;20141;-53
2021/06/04 13:49:14;;;;;;;10.70;9.07;;;;;;;26.10;47.74;101357.16;3570103;40;20139;-51
2021/06/04 13:52:10;;;;;;;11.63;9.48;;;;;;;26.52;47.87;101364.72;3573772;40;20053;-50
2021/06/04 13:54:46;;;;;;;11.57;9.20;;;;;;;27.89;43.41;101367.31;3555137;40;20051;-48
2021/06/04 13:57:28;;;;;;;10.45;8.93;;;;;;;27.29;45.33;101363.22;3565941;40;20065;-55
2021/06/04 14:00:19;;;;;;;10.13;8.70;;;;;;;27.03;45.62;101359.63;3568446;40;20045;-54
2021/06/04 14:02:49;;;;;;;13.40;9.15;;;;;;;26.23;47.06;101357.69;3567252;40;20076;-53
2021/06/04 14:05:30;;;;;;;12.35;8.63;;;;;;;26.31;48.62;101361.81;3573229;40;20056;-54
2021/06/04 14:08:07;;;;;;;9.65;8.68;;;;;;;26.56;46.55;101348.81;3572813;40;20084;-49
2021/06/04 14:10:37;;;;;;;9.73;8.73;;;;;;;27.94;44.47;101351.34;3573041;40;20550;-50
2021/06/04 14:13:24;;;;;;;9.30;8.40;;;;;;;29.26;40.08;101349.75;3572587;40;20047;-54
2021/06/04 14:16:04;;;;;;;9.18;8.38;;;;;;;26.64;44.90;101351.22;3567603;40;20074;-51
2021/06/04 14:18:52;;;;;;;9.85;8.50;;;;;;;27.52;44.10;101346.66;3568672;40;20045;-52
2021/06/04 14:21:27;;;;;;;9.40;8.52;;;;;;;27.52;42.39;101338.75;3566007;40;20064;-51
2021/06/04 14:24:06;;;;;;;8.68;7.88;;;;;;;30.02;40.84;101340.34;3568568;40;20049;-51
2021/06/04 14:26:55;;;;;;;10.20;8.95;;;;;;;29.50;39.87;101339.97;3567524;40;20057;-51
2021/06/04 14:29:44;;;;;;;11.80;9.07;;;;;;;28.58;40.81;101327.88;3563526;40;20064;-55
2021/06/04 14:32:25;;;;;;;10.40;8.07;;;;;;;29.03;40.15;101338.41;3563707;40;20042;-52
2021/06/04 14:35:22;;;;;;;10.40;9.32;;;;;;;29.37;39.85;101337.00;3566594;40;20588;-51
2021/06/04 14:37:58;;;;;;;10.43;9.35;;;;;;;30.65;37.11;101335.66;3564621;40;20065;-54
2021/06/04 14:40:31;;;;;;;9.73;8.82;;;;;;;30.63;37.36;101340.16;3568392;40;20056;-46
2021/06/04 14:43:03;;;;;;;10.65;8.63;;;;;;;28.46;41.50;101326.56;3568150;40;20083;-51
2021/06/04 14:45:30;;;;;;;11.35;7.95;;;;;;;29.92;38.47;101318.75;3560220;40;20121;-51
2021/06/04 14:48:03;;;;;;;11.52;8.73;;;;;;;29.51;38.75;101315.28;3569124;40;20057;-55
2021/06/04 14:50:33;;;;;;;9.18;8.32;;;;;;;29.40;39.12;101310.47;3568435;40;20165;-52
2021/06/04 14:53:04;;;;;;;8.25;7.55;;;;;;;29.87;37.66;101311.06;3568859;40;20061;-51
2021/06/04 14:55:33;;;;;;;7.80;7.03;;;;;;;31.12;34.18;101317.47;3570139;40;20085;-51
2021/06/04 14:58:01;;;;;;;9.45;6.82;;;;;;;30.07;35.06;101314.56;3569175;40;20139;-52
2021/06/04 15:00:29;;;;;;;10.13;7.03;;;;;;;29.23;35.85;101315.59;3568046;40;20057;-48
2021/06/04 15:02:57;;;;;;;9.75;7.15;;;;;;;29.26;35.65;101310.19;3572604;40;20391;-54
2021/06/04 15:05:27;;;;;;;8.57;6.60;;;;;;;29.30;36.55;101306.50;3573983;40;20378;-56
2021/06/04 15:07:56;;;;;;;8.20;6.75;;;;;;;29.35;36.12;101304.50;3573947;40;20809;-52
2021/06/04 15:10:25;;;;;;;10.65;6.57;;;;;;;29.24;36.63;101304.97;3573961;40;20053;-51
2021/06/04 15:12:53;;;;;;;7.50;6.70;;;;;;;28.81;37.13;101301.47;3574141;40;20068;-48
2021/06/04 15:15:25;;;;;;;7.47;6.53;;;;;;;29.01;37.26;101298.03;3574448;40;20411;-51
2021/06/04 15:17:53;;;;;;;10.35;6.72;;;;;;;28.12;38.46;101287.47;3573830;40;20056;-51
2021/06/04 15:20:24;;;;;;;8.63;6.47;;;;;;;28.10;38.48;101287.53;3574043;40;20068;-53
2021/06/04 15:22:53;;;;;;;7.72;6.88;;;;;;;27.98;38.73;101288.00;3574359;40;20112;-52
2021/06/04 15:25:22;;;;;;;7.45;6.70;;;;;;;27.99;39.34;101286.22;3574448;40;20343;-52
2021/06/04 15:27:50;;;;;;;7.93;6.85;;;;;;;27.86;40.53;101283.16;3574095;40;20063;-50
2021/06/04 15:30:18;;;;;;;8.18;6.85;;;;;;;27.37;40.32;101284.91;3570220;40;20469;-52
2021/06/04 15:32:46;;;;;;;8.80;7.03;;;;;;;27.38;41.50;101284.84;3565484;40;20059;-52
2021/06/04 15:35:15;;;;;;;13.05;7.10;;;;;;;26.82;41.38;101282.34;3574065;40;20858;-54
2021/06/04 15:37:42;;;;;;;8.20;7.38;;;;;;;26.74;40.70;101278.22;3574228;40;20378;-49
2021/06/04 15:40:10;;;;;;;8.27;7.45;;;;;;;26.53;42.69;101283.25;3574317;40;20088;-49
2021/06/04 15:42:38;;;;;;;10.95;6.93;;;;;;;26.35;41.86;101281.16;3573905;40;20085;-56
2021/06/04 15:45:07;;;;;;;8.55;7.63;;;;;;;26.57;42.05;101278.75;3573969;40;20697;-53
2021/06/04 15:47:36;;;;;;;9.18;7.20;;;;;;;26.26;43.33;101276.19;3573823;40;20064;-55
2021/06/04 15:50:05;;;;;;;8.32;7.18;;;;;;;26.24;43.48;101280.63;3573534;40;20096;-51
2021/06/04 15:52:32;;;;;;;7.60;7.00;;;;;;;26.37;43.42;101271.47;3574003;40;20096;-50
2021/06/04 15:55:00;;;;;;;8.15;7.35;;;;;;;26.52;43.72;101278.91;3574195;40;20044;-51
2021/06/04 15:57:27;;;;;;;8.55;7.60;;;;;;;26.55;42.75;101272.69;3573493;40;20338;-50
2021/06/04 15:59:54;;;;;;;8.35;7.55;;;;;;;26.45;43.04;101268.66;3573794;40;20127;-54
2021/06/04 16:02:25;;;;;;;9.05;7.50;;;;;;;25.98;44.74;101271.75;3574080;40;20094;-50
2021/06/04 16:04:52;;;;;;;8.57;7.18;;;;;;;26.01;43.58;101266.41;3574022;40;20108;-50
2021/06/04 16:07:19;;;;;;;7.93;7.22;;;;;;;25.57;44.06;101271.13;3574021;40;20053;-54
2021/06/04 16:09:47;;;;;;;10.70;7.10;;;;;;;25.57;44.94;101268.50;3573793;40;20093;-53
2021/06/04 16:12:16;;;;;;;7.32;6.53;;;;;;;25.09;45.54;101257.53;3573423;40;20053;-49
2021/06/04 16:14:44;;;;;;;10.60;7.50;;;;;;;25.03;45.51;101257.66;3573433;40;20069;-49
2021/06/04 16:17:12;;;;;;;11.15;7.75;;;;;;;25.08;46.24;101261.91;3573611;40;20096;-53
2021/06/04 16:19:40;;;;;;;11.27;7.55;;;;;;;24.88;45.80;101258.91;3573135;40;20100;-51
2021/06/04 16:22:10;;;;;;;7.95;7.25;;;;;;;25.05;45.98;101264.59;3573426;40;20052;-50
2021/06/04 16:24:38;;;;;;;10.68;7.70;;;;;;;24.52;47.84;101261.50;3573183;40;20453;-50
2021/06/04 16:27:05;;;;;;;8.90;7.35;;;;;;;24.67;47.16;101262.03;3573609;40;20116;-52
2021/06/04 16:29:33;;;;;;;9.00;8.10;;;;;;;24.64;47.05;101269.09;3573213;40;20083;-53
2021/06/04 16:32:03;;;;;;;8.52;7.63;;;;;;;24.49;47.72;101263.31;3573237;40;20115;-50
2021/06/04 16:34:33;;;;;;;9.90;7.30;;;;;;;24.67;47.84;101260.28;3573463;40;20065;-51
2021/06/04 16:37:05;;;;;;;9.85;8.82;;;;;;;24.68;48.77;101253.28;3573293;40;20033;-51
2021/06/04 16:39:32;;;;;;;9.35;7.47;;;;;;;24.87;47.93;101265.91;3573507;40;20323;-53
2021/06/04 16:41:59;;;;;;;8.75;7.88;;;;;;;24.73;48.45;101262.78;3573014;40;20077;-52
2021/06/04 16:44:26;;;;;;;9.93;7.88;;;;;;;24.72;48.44;101258.41;3573207;40;20059;-49
2021/06/04 16:46:53;;;;;;;12.60;7.82;;;;;;;24.67;47.76;101264.66;3573525;40;20097;-49
2021/06/04 16:49:20;;;;;;;11.73;8.40;;;;;;;24.60;48.00;101256.97;3573426;40;20049;-51
2021/06/04 16:51:48;;;;;;;11.25;8.00;;;;;;;24.66;48.11;101261.19;3567373;40;20025;-51
2021/06/04 16:54:16;;;;;;;9.73;7.13;;;;;;;24.43;49.06;101259.09;3569169;40;20084;-48
2021/06/04 16:56:43;;;;;;;8.27;7.13;;;;;;;24.73;48.23;101262.78;3567924;40;20073;-51
2021/06/04 16:59:12;;;;;;;9.68;7.75;;;;;;;24.84;48.75;101258.13;3567544;40;20046;-49
2021/06/04 17:01:41;;;;;;;10.18;7.72;;;;;;;24.57;49.00;101251.78;3568649;40;20055;-51
2021/06/04 17:04:10;;;;;;;8.18;7.35;;;;;;;24.32;50.08;101251.47;3568883;40;20076;-52
2021/06/04 17:06:37;;;;;;;8.65;7.82;;;;;;;24.13;49.54;101252.75;3568175;40;20078;-49
2021/06/04 17:09:08;;;;;;;8.45;7.63;;;;;;;24.24;49.95;101253.38;3566671;40;20089;-50
2021/06/04 17:11:36;;;;;;;9.23;7.75;;;;;;;23.77;50.61;101255.25;3572135;40;20359;-48
2021/06/04 17:14:04;;;;;;;11.05;8.05;;;;;;;23.94;50.49;101249.66;3570780;40;20060;-48
2021/06/04 17:16:32;;;;;;;9.13;7.18;;;;;;;24.17;50.69;101253.53;3573014;40;20060;-47
2021/06/04 17:19:00;;;;;;;10.13;8.07;;;;;;;23.98;50.96;101253.06;3571944;40;20056;-50
2021/06/04 17:21:27;;;;;;;8.65;7.85;;;;;;;23.99;50.74;101258.28;3572005;40;20320;-50
2021/06/04 17:23:56;;;;;;;12.35;8.07;;;;;;;23.85;51.35;101255.09;3573119;40;20064;-53
2021/06/04 17:26:25;;;;;;;8.13;7.30;;;;;;;23.74;50.91;101259.66;3573426;40;20105;-53
2021/06/04 17:28:53;;;;;;;8.40;7.57;;;;;;;23.95;50.82;101247.91;3573423;40;20097;-51
2021/06/04 17:31:22;;;;;;;8.40;7.57;;;;;;;23.85;51.92;101255.09;3569124;40;20033;-54
2021/06/04 17:33:53;;;;;;;9.38;7.32;;;;;;;23.89;51.90;101249.75;3569062;40;20041;-52
2021/06/04 17:36:25;;;;;;;12.48;8.10;;;;;;;23.92;51.60;101256.69;3601308;22;20078;-49
2021/06/04 17:38:52;;;;;;;9.20;7.88;;;;;;;24.23;51.37;101264.75;3583567;40;20077;-49
2021/06/04 17:41:21;;;;;;;9.40;7.93;;;;;;;23.92;52.58;101259.28;3583607;40;20053;-49
2021/06/04 17:43:49;;;;;;;10.25;8.32;;;;;;;23.37;55.21;101261.19;3583748;40;20371;-52
2021/06/04 17:46:17;;;;;;;12.50;9.75;;;;;;;23.76;52.84;101269.22;3582594;40;20061;-46
2021/06/04 17:48:44;;;;;;;11.82;10.63;;;;;;;23.55;52.97;101278.28;3583591;40;20048;-50
2021/06/04 17:51:12;;;;;;;10.90;9.77;;;;;;;23.48;53.62;101273.19;3584359;40;20575;-53
2021/06/04 17:53:39;;;;;;;12.63;9.23;;;;;;;23.18;54.80;101274.59;3583628;40;20058;-47
2021/06/04 17:56:07;;;;;;;9.25;8.55;;;;;;;23.56;52.76;101263.47;3583604;40;20040;-49
2021/06/04 17:58:34;;;;;;;12.93;9.40;;;;;;;23.22;55.13;101258.84;3583205;40;20080;-48
2021/06/04 18:01:02;;;;;;;11.57;8.65;;;;;;;22.90;55.95;101272.44;3582915;40;20663;-49
2021/06/04 18:03:32;;;;;;;10.30;8.20;;;;;;;22.85;56.87;101276.84;3583319;40;20143;-46
2021/06/04 18:05:59;;;;;;;11.02;8.60;;;;;;;23.16;55.48;101277.25;3583138;40;20071;-47
2021/06/04 18:08:30;;;;;;;10.18;8.10;;;;;;;22.49;56.68;101280.88;3582975;40;20059;-52
2021/06/04 18:11:00;;;;;;;15.27;8.38;;;;;;;22.28;58.13;101271.59;3582340;40;20092;-47
2021/06/04 18:13:28;;;;;;;12.88;8.38;;;;;;;22.31;56.82;101275.03;3582102;40;20094;-52
2021/06/04 18:15:55;;;;;;;11.68;8.10;;;;;;;22.28;57.94;101271.59;3582187;40;20338;-53
2021/06/04 18:18:23;;;;;;;11.93;8.25;;;;;;;22.08;57.50;101271.81;3582498;40;20053;-49
2021/06/04 18:20:52;;;;;;;10.93;8.25;;;;;;;21.95;58.35;101275.44;3583062;40;20135;-48
2021/06/04 18:23:32;;;;;;;10.93;8.15;;;;;;;21.99;57.77;101264.97;3584146;40;20076;-48
2021/06/04 18:26:01;;;;;;;10.02;8.15;;;;;;;22.14;57.61;101268.28;3584639;40;20044;-48
2021/06/04 18:28:28;;;;;;;9.55;8.13;;;;;;;21.77;58.41;101266.09;3584698;40;20442;-48
2021/06/04 18:30:56;;;;;;;8.55;7.75;;;;;;;21.69;59.70;101266.19;3584787;40;20359;-48
2021/06/04 18:33:25;;;;;;;11.52;7.72;;;;;;;21.49;60.24;101268.13;3584586;40;20059;-52
2021/06/04 18:35:52;;;;;;;10.65;8.40;;;;;;;21.44;59.63;101262.09;3585133;40;20048;-52
2021/06/04 18:38:21;;;;;;;13.00;9.13;;;;;;;21.43;60.31;101266.47;3584567;40;20080;-48
2021/06/04 18:40:50;;;;;;;13.68;8.77;;;;;;;21.50;60.41;101265.53;3584701;40;20063;-48
2021/06/04 18:43:25;;;;;;;9.52;8.63;;;;;;;21.26;61.07;101261.41;3584488;40;20043;-47
2021/06/04 18:45:53;;;;;;;10.57;8.15;;;;;;;21.15;61.49;101265.81;3584818;40;20092;-47
2021/06/04 18:48:20;;;;;;;9.32;8.25;;;;;;;21.15;62.13;101267.56;3584632;40;20048;-49
2021/06/04 18:50:47;;;;;;;11.73;7.90;;;;;;;21.04;61.67;101270.28;3584627;40;20295;-48
2021/06/04 18:53:21;;;;;;;11.60;7.80;;;;;;;21.03;61.91;101276.34;3584411;40;20494;-49
2021/06/04 18:55:48;;;;;;;10.38;8.32;;;;;;;20.83;62.07;101271.28;3584555;40;20785;-52
2021/06/04 18:58:16;;;;;;;9.82;7.82;;;;;;;20.76;61.77;101277.44;3584385;40;20056;-48
2021/06/04 19:01:00;;;;;;;7.50;6.88;;;;;;;20.65;62.30;101271.41;3584252;40;20076;-51
2021/06/04 19:03:31;;;;;;;8.90;8.00;;;;;;;20.58;62.95;101268.88;3583197;40;20055;-52
2021/06/04 19:05:58;;;;;;;10.80;7.72;;;;;;;20.51;63.39;101272.34;3584894;40;20052;-47
2021/06/04 19:08:26;;;;;;;9.73;7.57;;;;;;;20.36;63.91;101277.63;3584380;40;20053;-55
2021/06/04 19:10:54;;;;;;;10.30;8.45;;;;;;;20.33;64.11;101281.09;3584883;40;20461;-54
2021/06/04 19:13:22;;;;;;;11.98;9.15;;;;;;;20.30;63.84;101285.47;3582328;40;20076;-48
2021/06/04 19:15:49;;;;;;;8.60;7.63;;;;;;;20.07;65.02;101296.84;3584697;40;20052;-49
2021/06/04 19:18:16;;;;;;;9.63;7.78;;;;;;;20.17;64.32;101289.84;3584155;40;20056;-49
2021/06/04 19:20:43;;;;;;;9.02;7.85;;;;;;;19.96;65.13;101288.19;3584352;40;20120;-52
2021/06/04 19:23:11;;;;;;;11.15;8.05;;;;;;;19.90;65.56;101293.41;3584272;40;20084;-51
2021/06/04 19:25:41;;;;;;;10.40;8.13;;;;;;;19.92;65.61;101301.19;3584343;40;20111;-47
2021/06/04 19:28:09;;;;;;;11.38;8.20;;;;;;;19.93;65.22;101296.03;3580971;40;20050;-47
2021/06/04 19:30:41;;;;;;;8.23;7.43;;;;;;;19.71;66.19;101297.81;3584640;40;20149;-52
2021/06/04 19:33:13;;;;;;;10.55;7.80;;;;;;;19.57;67.13;101290.00;3580322;40;20064;-45
2021/06/04 19:35:40;;;;;;;8.60;7.57;;;;;;;19.47;67.54;101293.50;3584464;40;20107;-48
2021/06/04 19:38:21;;;;;;;9.77;8.60;;;;;;;19.43;68.10;101294.34;3584157;40;20107;-51
2021/06/04 19:41:13;;;;;;;9.15;8.05;;;;;;;19.32;69.29;101290.91;3584257;40;20156;-51
2021/06/04 19:43:43;;;;;;;9.02;8.10;;;;;;;19.23;70.43;101291.78;3584315;40;20442;-54
2021/06/04 19:46:10;;;;;;;11.55;8.55;;;;;;;19.28;70.29;101290.03;3581133;40;20084;-49
2021/06/04 19:48:38;;;;;;;9.73;8.80;;;;;;;19.08;72.10;101284.84;3586849;40;20052;-50
2021/06/04 19:51:08;;;;;;;9.18;8.38;;;;;;;19.03;71.80;101291.75;3585970;40;20576;-47
2021/06/04 19:53:35;;;;;;;9.75;8.32;;;;;;;18.99;72.83;101289.16;3584837;40;20122;-49